Krymsk — A8CE4 — position and weather

sailwx.info

Track history (hours):
 
Tides and Currents Weather Stations Pressure Air Temp Water Temp Dewpoint Dewpoint Depression Visibility Wind Speed Wind Dir Waves Ship Positions

Krymsk

Last reported at 2016-Aug-19 20:10 UTC. Time now 2016-Aug-29 03:43 UTC.
Position S 22°53' W 041°13'.
Warning: this ship's position is 9 days out of date.

Length 250 m; draft 14.7 m.

Type: Ship. MMSI: 636011914.

Date/timePositionNaut miles runAvg speedWind from/ knotsBaromVisibWave heightAir tempDewpointWater temp
2016-Aug-19 20:10S 22°53' W 041°13'812.0
2016-Aug-19 19:32S 23°00' W 041°15'1212.1
2016-Aug-19 18:33S 23°12' W 041°16'6 6.3
2016-Aug-19 17:33S 23°18' W 041°16'1 0.1
2016-Aug-19 11:06S 23°19' W 041°16'0 0.0
2016-Aug-19 08:33S 23°19' W 041°16'0 0.0
2016-Aug-19 07:12S 23°19' W 041°16'1 0.0
2016-Aug-18 12:33S 23°19' W 041°15'0 0.1
2016-Aug-18 11:12S 23°19' W 041°15'0 0.2
2016-Aug-18 10:18S 23°19' W 041°15'0 0.0
2016-Aug-18 06:24S 23°19' W 041°15'0 0.1
2016-Aug-18 05:33S 23°19' W 041°15'0 0.0
2016-Aug-18 00:33S 23°19' W 041°16'0 0.0
2016-Aug-17 23:33S 23°19' W 041°16'0 0.0
2016-Aug-17 22:33S 23°19' W 041°16'0 0.0
2016-Aug-17 21:27S 23°19' W 041°16'0 0.0
2016-Aug-17 19:23S 23°19' W 041°16'0 0.0
2016-Aug-17 18:20S 23°19' W 041°16'0 0.0
2016-Aug-17 17:32S 23°19' W 041°16'0 0.0
2016-Aug-17 16:32S 23°19' W 041°16'6 0.9
2016-Aug-17 09:33S 23°23' W 041°21'27 8.5
2016-Aug-17 06:24S 23°16' W 041°49'910.3
2016-Aug-17 05:33S 23°15' W 041°59'4610.9
2016-Aug-17 01:20S 23°10' W 042°49'811.0
2016-Aug-17 00:33S 23°06' W 042°57'1110.9
2016-Aug-16 23:32S 23°01' W 043°07'9 8.8
2016-Aug-16 22:33S 22°53' W 043°09'3 2.4
2016-Aug-16 21:29S 22°50' W 043°09'0 0.2
2016-Aug-16 20:29S 22°50' W 043°09'0 0.1
2016-Aug-16 19:29S 22°50' W 043°09'0 0.0
2016-Aug-16 18:29S 22°50' W 043°09'0 0.0
2016-Aug-16 17:29S 22°50' W 043°09'0 0.0
2016-Aug-16 16:29S 22°50' W 043°09'0 0.0
2016-Aug-16 15:29S 22°50' W 043°09'0 0.0
2016-Aug-16 14:29S 22°50' W 043°09'0 0.1
2016-Aug-16 13:29S 22°50' W 043°09'0 0.2
2016-Aug-16 12:29S 22°50' W 043°09'0 0.1
2016-Aug-16 11:23S 22°50' W 043°09'0 0.0
2016-Aug-16 10:29S 22°50' W 043°09'0 0.0
2016-Aug-16 09:29S 22°50' W 043°09'0 0.0
2016-Aug-16 08:29S 22°50' W 043°09'0 0.0
2016-Aug-16 07:23S 22°50' W 043°09'0 0.1
2016-Aug-16 04:28S 22°50' W 043°09'0 0.1
2016-Aug-16 03:28S 22°50' W 043°09'0 0.2
2016-Aug-16 02:16S 22°50' W 043°09'0 0.2
2016-Aug-16 01:28S 22°50' W 043°09'0 0.0
2016-Aug-16 00:28S 22°50' W 043°09'0 0.0
2016-Aug-15 23:22S 22°50' W 043°09'0 0.1
2016-Aug-15 22:28S 22°50' W 043°09'0 0.1
2016-Aug-15 21:28S 22°50' W 043°09'0 0.0
2016-Aug-15 20:28S 22°50' W 043°09'0 0.0
2016-Aug-15 19:28S 22°50' W 043°09'0 0.0
2016-Aug-15 18:28S 22°50' W 043°09'0 0.2
2016-Aug-15 17:28S 22°50' W 043°09'0 0.0
2016-Aug-15 16:28S 22°50' W 043°09'0 0.0
2016-Aug-15 15:28S 22°50' W 043°09'0 0.0
2016-Aug-15 14:22S 22°50' W 043°09'0 0.0
2016-Aug-15 13:28S 22°50' W 043°09'0 0.0
2016-Aug-15 12:28S 22°50' W 043°09'0 0.2
2016-Aug-15 11:22S 22°50' W 043°09'0 0.1
2016-Aug-15 10:28S 22°50' W 043°09'0 0.0
2016-Aug-15 09:10S 22°50' W 043°09'0 0.0
2016-Aug-15 08:28S 22°50' W 043°09'0 0.0
2016-Aug-15 07:10S 22°50' W 043°09'0 0.0
2016-Aug-15 06:28S 22°50' W 043°09'0 0.1
2016-Aug-15 04:22S 22°50' W 043°09'0 0.1
2016-Aug-15 03:28S 22°50' W 043°09'0 0.0
2016-Aug-15 02:28S 22°50' W 043°09'0 0.0
2016-Aug-15 01:28S 22°50' W 043°09'0 0.0
2016-Aug-15 00:28S 22°50' W 043°09'0 0.0
2016-Aug-14 23:28S 22°50' W 043°09'0 0.0
2016-Aug-14 22:28S 22°50' W 043°09'0 0.1
2016-Aug-14 21:28S 22°50' W 043°09'0 0.1
2016-Aug-14 20:22S 22°50' W 043°09'0 0.0
2016-Aug-14 19:28S 22°50' W 043°09'0 0.0
2016-Aug-14 18:28S 22°50' W 043°09'0 0.1
2016-Aug-14 17:28S 22°50' W 043°09'0 0.0
2016-Aug-14 16:28S 22°50' W 043°09'0 0.0
2016-Aug-14 15:28S 22°50' W 043°09'0 0.0
2016-Aug-14 14:28S 22°50' W 043°09'0 0.2
2016-Aug-14 13:34S 22°50' W 043°09'4 3.8
2016-Aug-14 12:33S 22°54' W 043°09'7 7.3
2016-Aug-14 11:32S 23°01' W 043°07'8 8.0
2016-Aug-14 10:33S 23°04' W 042°59'9 9.1
2016-Aug-14 09:33S 23°10' W 042°51'2 1.7
2016-Aug-14 08:27S 23°11' W 042°50'0 0.2
2016-Aug-14 07:33S 23°11' W 042°50'0 0.3
2016-Aug-14 06:34S 23°11' W 042°50'5 2.6
2016-Aug-14 04:34S 23°07' W 042°54'1 1.3
2016-Aug-14 03:34S 23°08' W 042°53'1 1.1
2016-Aug-14 02:33S 23°09' W 042°52'1 1.2
2016-Aug-14 01:34S 23°09' W 042°51'1 1.1
2016-Aug-14 00:33S 23°09' W 042°50'1 1.3
2016-Aug-13 23:34S 23°10' W 042°49'1 0.4
2016-Aug-13 21:34S 23°11' W 042°49'1 0.7
2016-Aug-13 20:33S 23°10' W 042°48'1 1.0
2016-Aug-13 19:30S 23°10' W 042°47'0 0.2
2016-Aug-13 18:30S 23°10' W 042°47'0 0.0
2016-Aug-13 11:30S 23°10' W 042°47'0 0.0
2016-Aug-13 10:30S 23°10' W 042°47'0 0.0
2016-Aug-13 09:30S 23°10' W 042°47'0 0.0
2016-Aug-13 08:30S 23°10' W 042°47'0 0.0
2016-Aug-13 07:30S 23°10' W 042°47'0 0.0
2016-Aug-13 06:30S 23°10' W 042°47'0 0.0
2016-Aug-13 05:30S 23°10' W 042°47'0 0.0
2016-Aug-13 04:30S 23°10' W 042°47'0 0.0
2016-Aug-13 03:30S 23°10' W 042°47'0 0.0
2016-Aug-13 02:30S 23°10' W 042°47'0 0.0
2016-Aug-13 01:30S 23°10' W 042°47'0 0.0
2016-Aug-13 00:30S 23°10' W 042°47'0 0.0
2016-Aug-12 23:18S 23°10' W 042°47'0 0.0
2016-Aug-12 22:30S 23°10' W 042°47'0 0.0
2016-Aug-12 21:24S 23°10' W 042°47'0 0.0
2016-Aug-12 19:12S 23°10' W 042°47'0 0.0
2016-Aug-12 18:24S 23°10' W 042°47'0 0.0
2016-Aug-12 15:12S 23°10' W 042°47'0 0.0
2016-Aug-12 14:06S 23°10' W 042°47'0 0.0
2016-Aug-12 12:30S 23°10' W 042°47'0 0.0
2016-Aug-12 11:30S 23°10' W 042°47'0 0.0
2016-Aug-12 10:18S 23°10' W 042°47'0 0.1
2016-Aug-12 09:30S 23°10' W 042°47'0 0.0
2016-Aug-12 07:29S 23°10' W 042°47'0 0.0
2016-Aug-12 06:17S 23°10' W 042°47'0 0.0
2016-Aug-12 04:29S 23°10' W 042°47'0 0.0
2016-Aug-12 02:23S 23°10' W 042°47'0 0.0
2016-Aug-12 00:29S 23°10' W 042°47'0 0.0
2016-Aug-11 22:23S 23°10' W 042°47'0 0.0
2016-Aug-11 21:23S 23°10' W 042°47'0 0.0
2016-Aug-11 19:23S 23°10' W 042°47'0 0.0
2016-Aug-11 17:17S 23°10' W 042°47'0 0.0
2016-Aug-11 12:29S 23°10' W 042°47'0 0.0
2016-Aug-11 10:17S 23°10' W 042°47'0 0.0
2016-Aug-11 08:11S 23°10' W 042°47'0 0.1
2016-Aug-11 07:29S 23°10' W 042°47'0 0.0
2016-Aug-11 06:05S 23°10' W 042°47'0 0.0
2016-Aug-11 05:29S 23°10' W 042°47'0 0.0
2016-Aug-11 03:23S 23°10' W 042°47'0 0.0
2016-Aug-11 02:11S 23°10' W 042°47'0 0.1
2016-Aug-11 01:29S 23°10' W 042°47'0 0.1
2016-Aug-11 00:23S 23°10' W 042°47'0 0.0
2016-Aug-10 23:29S 23°10' W 042°47'0 0.0
2016-Aug-10 22:29S 23°10' W 042°47'0 0.0
2016-Aug-10 21:23S 23°10' W 042°47'0 0.0
2016-Aug-10 20:29S 23°10' W 042°47'0 0.0
2016-Aug-10 19:23S 23°10' W 042°47'0 0.0
2016-Aug-10 17:23S 23°10' W 042°47'0 0.0
2016-Aug-10 15:22S 23°10' W 042°47'0 0.0
2016-Aug-10 14:10S 23°10' W 042°47'  
Track history (hours):
 
Tides and Currents Weather Stations Pressure Air Temp Water Temp Dewpoint Dewpoint Depression Visibility Wind Speed Wind Dir Waves Ship Positions

Krymsk

Last reported at 2016-Aug-19 20:10 UTC. Time now 2016-Aug-29 03:43 UTC.
Position S 22°53' W 041°13'.
Warning: this ship's position is 9 days out of date.

Length 250 m; draft 14.7 m.

Type: Ship. MMSI: 636011914.

Date/timePositionNaut miles runAvg speedWind from/ knotsBaromVisibWave heightAir tempDewpointWater temp
2016-Aug-19 20:10S 22°53' W 041°13'812.0
2016-Aug-19 19:32S 23°00' W 041°15'1212.1
2016-Aug-19 18:33S 23°12' W 041°16'6 6.3
2016-Aug-19 17:33S 23°18' W 041°16'1 0.1
2016-Aug-19 11:06S 23°19' W 041°16'0 0.0
2016-Aug-19 08:33S 23°19' W 041°16'0 0.0
2016-Aug-19 07:12S 23°19' W 041°16'1 0.0
2016-Aug-18 12:33S 23°19' W 041°15'0 0.1
2016-Aug-18 11:12S 23°19' W 041°15'0 0.2
2016-Aug-18 10:18S 23°19' W 041°15'0 0.0
2016-Aug-18 06:24S 23°19' W 041°15'0 0.1
2016-Aug-18 05:33S 23°19' W 041°15'0 0.0
2016-Aug-18 00:33S 23°19' W 041°16'0 0.0
2016-Aug-17 23:33S 23°19' W 041°16'0 0.0
2016-Aug-17 22:33S 23°19' W 041°16'0 0.0
2016-Aug-17 21:27S 23°19' W 041°16'0 0.0
2016-Aug-17 19:23S 23°19' W 041°16'0 0.0
2016-Aug-17 18:20S 23°19' W 041°16'0 0.0
2016-Aug-17 17:32S 23°19' W 041°16'0 0.0
2016-Aug-17 16:32S 23°19' W 041°16'6 0.9
2016-Aug-17 09:33S 23°23' W 041°21'27 8.5
2016-Aug-17 06:24S 23°16' W 041°49'910.3
2016-Aug-17 05:33S 23°15' W 041°59'4610.9
2016-Aug-17 01:20S 23°10' W 042°49'811.0
2016-Aug-17 00:33S 23°06' W 042°57'1110.9
2016-Aug-16 23:32S 23°01' W 043°07'9 8.8
2016-Aug-16 22:33S 22°53' W 043°09'3 2.4
2016-Aug-16 21:29S 22°50' W 043°09'0 0.2
2016-Aug-16 20:29S 22°50' W 043°09'0 0.1
2016-Aug-16 19:29S 22°50' W 043°09'0 0.0
2016-Aug-16 18:29S 22°50' W 043°09'0 0.0
2016-Aug-16 17:29S 22°50' W 043°09'0 0.0
2016-Aug-16 16:29S 22°50' W 043°09'0 0.0
2016-Aug-16 15:29S 22°50' W 043°09'0 0.0
2016-Aug-16 14:29S 22°50' W 043°09'0 0.1
2016-Aug-16 13:29S 22°50' W 043°09'0 0.2
2016-Aug-16 12:29S 22°50' W 043°09'0 0.1
2016-Aug-16 11:23S 22°50' W 043°09'0 0.0
2016-Aug-16 10:29S 22°50' W 043°09'0 0.0
2016-Aug-16 09:29S 22°50' W 043°09'0 0.0
2016-Aug-16 08:29S 22°50' W 043°09'0 0.0
2016-Aug-16 07:23S 22°50' W 043°09'0 0.1
2016-Aug-16 04:28S 22°50' W 043°09'0 0.1
2016-Aug-16 03:28S 22°50' W 043°09'0 0.2
2016-Aug-16 02:16S 22°50' W 043°09'0 0.2
2016-Aug-16 01:28S 22°50' W 043°09'0 0.0
2016-Aug-16 00:28S 22°50' W 043°09'0 0.0
2016-Aug-15 23:22S 22°50' W 043°09'0 0.1
2016-Aug-15 22:28S 22°50' W 043°09'0 0.1
2016-Aug-15 21:28S 22°50' W 043°09'0 0.0
2016-Aug-15 20:28S 22°50' W 043°09'0 0.0
2016-Aug-15 19:28S 22°50' W 043°09'0 0.0
2016-Aug-15 18:28S 22°50' W 043°09'0 0.2
2016-Aug-15 17:28S 22°50' W 043°09'0 0.0
2016-Aug-15 16:28S 22°50' W 043°09'0 0.0
2016-Aug-15 15:28S 22°50' W 043°09'0 0.0
2016-Aug-15 14:22S 22°50' W 043°09'0 0.0
2016-Aug-15 13:28S 22°50' W 043°09'0 0.0
2016-Aug-15 12:28S 22°50' W 043°09'0 0.2
2016-Aug-15 11:22S 22°50' W 043°09'0 0.1
2016-Aug-15 10:28S 22°50' W 043°09'0 0.0
2016-Aug-15 09:10S 22°50' W 043°09'0 0.0
2016-Aug-15 08:28S 22°50' W 043°09'0 0.0
2016-Aug-15 07:10S 22°50' W 043°09'0 0.0
2016-Aug-15 06:28S 22°50' W 043°09'0 0.1
2016-Aug-15 04:22S 22°50' W 043°09'0 0.1
2016-Aug-15 03:28S 22°50' W 043°09'0 0.0
2016-Aug-15 02:28S 22°50' W 043°09'0 0.0
2016-Aug-15 01:28S 22°50' W 043°09'0 0.0
2016-Aug-15 00:28S 22°50' W 043°09'0 0.0
2016-Aug-14 23:28S 22°50' W 043°09'0 0.0
2016-Aug-14 22:28S 22°50' W 043°09'0 0.1
2016-Aug-14 21:28S 22°50' W 043°09'0 0.1
2016-Aug-14 20:22S 22°50' W 043°09'0 0.0
2016-Aug-14 19:28S 22°50' W 043°09'0 0.0
2016-Aug-14 18:28S 22°50' W 043°09'0 0.1
2016-Aug-14 17:28S 22°50' W 043°09'0 0.0
2016-Aug-14 16:28S 22°50' W 043°09'0 0.0
2016-Aug-14 15:28S 22°50' W 043°09'0 0.0
2016-Aug-14 14:28S 22°50' W 043°09'0 0.2
2016-Aug-14 13:34S 22°50' W 043°09'4 3.8
2016-Aug-14 12:33S 22°54' W 043°09'7 7.3
2016-Aug-14 11:32S 23°01' W 043°07'8 8.0
2016-Aug-14 10:33S 23°04' W 042°59'9 9.1
2016-Aug-14 09:33S 23°10' W 042°51'2 1.7
2016-Aug-14 08:27S 23°11' W 042°50'0 0.2
2016-Aug-14 07:33S 23°11' W 042°50'0 0.3
2016-Aug-14 06:34S 23°11' W 042°50'5 2.6
2016-Aug-14 04:34S 23°07' W 042°54'1 1.3
2016-Aug-14 03:34S 23°08' W 042°53'1 1.1
2016-Aug-14 02:33S 23°09' W 042°52'1 1.2
2016-Aug-14 01:34S 23°09' W 042°51'1 1.1
2016-Aug-14 00:33S 23°09' W 042°50'1 1.3
2016-Aug-13 23:34S 23°10' W 042°49'1 0.4
2016-Aug-13 21:34S 23°11' W 042°49'1 0.7
2016-Aug-13 20:33S 23°10' W 042°48'1 1.0
2016-Aug-13 19:30S 23°10' W 042°47'0 0.2
2016-Aug-13 18:30S 23°10' W 042°47'0 0.0
2016-Aug-13 11:30S 23°10' W 042°47'0 0.0
2016-Aug-13 10:30S 23°10' W 042°47'0 0.0
2016-Aug-13 09:30S 23°10' W 042°47'0 0.0
2016-Aug-13 08:30S 23°10' W 042°47'0 0.0
2016-Aug-13 07:30S 23°10' W 042°47'0 0.0
2016-Aug-13 06:30S 23°10' W 042°47'0 0.0
2016-Aug-13 05:30S 23°10' W 042°47'0 0.0
2016-Aug-13 04:30S 23°10' W 042°47'0 0.0
2016-Aug-13 03:30S 23°10' W 042°47'0 0.0
2016-Aug-13 02:30S 23°10' W 042°47'0 0.0
2016-Aug-13 01:30S 23°10' W 042°47'0 0.0
2016-Aug-13 00:30S 23°10' W 042°47'0 0.0
2016-Aug-12 23:18S 23°10' W 042°47'0 0.0
2016-Aug-12 22:30S 23°10' W 042°47'0 0.0
2016-Aug-12 21:24S 23°10' W 042°47'0 0.0
2016-Aug-12 19:12S 23°10' W 042°47'0 0.0
2016-Aug-12 18:24S 23°10' W 042°47'0 0.0
2016-Aug-12 15:12S 23°10' W 042°47'0 0.0
2016-Aug-12 14:06S 23°10' W 042°47'0 0.0
2016-Aug-12 12:30S 23°10' W 042°47'0 0.0
2016-Aug-12 11:30S 23°10' W 042°47'0 0.0
2016-Aug-12 10:18S 23°10' W 042°47'0 0.1
2016-Aug-12 09:30S 23°10' W 042°47'0 0.0
2016-Aug-12 07:29S 23°10' W 042°47'0 0.0
2016-Aug-12 06:17S 23°10' W 042°47'0 0.0
2016-Aug-12 04:29S 23°10' W 042°47'0 0.0
2016-Aug-12 02:23S 23°10' W 042°47'0 0.0
2016-Aug-12 00:29S 23°10' W 042°47'0 0.0
2016-Aug-11 22:23S 23°10' W 042°47'0 0.0
2016-Aug-11 21:23S 23°10' W 042°47'0 0.0
2016-Aug-11 19:23S 23°10' W 042°47'0 0.0
2016-Aug-11 17:17S 23°10' W 042°47'0 0.0
2016-Aug-11 12:29S 23°10' W 042°47'0 0.0
2016-Aug-11 10:17S 23°10' W 042°47'0 0.0
2016-Aug-11 08:11S 23°10' W 042°47'0 0.1
2016-Aug-11 07:29S 23°10' W 042°47'0 0.0
2016-Aug-11 06:05S 23°10' W 042°47'0 0.0
2016-Aug-11 05:29S 23°10' W 042°47'0 0.0
2016-Aug-11 03:23S 23°10' W 042°47'0 0.0
2016-Aug-11 02:11S 23°10' W 042°47'0 0.1
2016-Aug-11 01:29S 23°10' W 042°47'0 0.1
2016-Aug-11 00:23S 23°10' W 042°47'0 0.0
2016-Aug-10 23:29S 23°10' W 042°47'0 0.0
2016-Aug-10 22:29S 23°10' W 042°47'0 0.0
2016-Aug-10 21:23S 23°10' W 042°47'0 0.0
2016-Aug-10 20:29S 23°10' W 042°47'0 0.0
2016-Aug-10 19:23S 23°10' W 042°47'0 0.0
2016-Aug-10 17:23S 23°10' W 042°47'0 0.0
2016-Aug-10 15:22S 23°10' W 042°47'0 0.0
2016-Aug-10 14:10S 23°10' W 042°47'  

Dump ship's entire track history